Here is the Quick Look data you requested

The Data originates at the National Weather Service, and is made available here by the UAlbany Department of Atmospheric and Environmental Sciences

Surface Observations

KCVG 241352Z 17005KT 3SM -RA BR SCT048 BKN070 OVC090 13/11 A2999 RMK AO2 RAB19
 SLP154 P0005 T01280111=
KCVG 241418Z 17008KT 2SM RA BR FEW024 BKN070 OVC095 13/11 A3001 RMK AO2 LTG
 DSNT SE-SW P0004 T01280111=
KCVG 241424Z 17009KT 3SM -RA BR SCT020 BKN050 OVC095 13/11 A3001 RMK AO2 TWR
 VIS 5 LTG DSNT SE-SW CIG 022 36R P0006 T01280111=
KCVG 241450Z 16009KT 1 3/4SM RA BR SCT020 BKN035 OVC055 13/12 A2998 RMK AO2 TWR
 VIS 3 LTG DSNT S P0016=
KCVG 241452Z 15009KT 1 3/4SM +RA BR FEW020 BKN037 OVC060 13/12 A2997 RMK AO2
 TWR VIS 3 LTG DSNT S PRESFR SLP147 P0016 60021 T01280117 58004=
KCVG 241507Z 15011KT 5SM -RA BR FEW007 BKN050 OVC095 14/12 A2997 RMK AO2 LTG
 DSNT W P0003 T01390122=
KCVG 241521Z 17006KT 2SM VCTS RA BR BKN006 BKN038 OVC070 13/12 A2999 RMK AO2
 TWR VIS 2 1/2 LTG DSNT W TSE18 P0004 T01330122=
KCVG 241539Z 13005KT 2 1/2SM -RA BR BKN006 OVC038 14/12 A2998 RMK AO2 SFC VIS 3
 TSE18 P0008 T01390122=
KCVG 241552Z 00000KT 1 1/2SM R18C/5500VP6000FT RA BR BKN006 OVC038 14/12 A2999
 RMK AO2 TWR VIS 2 1/2 LTG DSNT NE AND E TSE18 SLP151 P0012 T01390122=
KCVG 241602Z 15008KT 2 1/2SM -RA BR BKN007 BKN026 OVC030 14/13 A2997 RMK AO2
 SFC VIS 4 P0001 T01440128=
KCVG 241635Z 17007KT 7SM OVC023 15/13 A2996 RMK AO2 RAE23 P0001 T01500128=
KCVG 241652Z 17006KT 8SM OVC021 15/13 A2995 RMK AO2 RAE23 SLP139 P0001
 T01500133=
KCVG 241752Z 19007KT 6SM VCTS -RA BR SCT014 OVC015 16/14 A2994 RMK AO2 LTG DSNT
 SW RAB42 SLP133 P0000 60034 T01610139 10161 20122 58012=
KCVG 241758Z 17008KT 1 3/4SM R18C/6000VP6000FT VCTS +RA BR OVC015 16/14 A2994
 RMK AO2 LTG DSNT SW P0000 T01610139=
KCVG 241805Z 17007KT 1SM R18C/6000VP6000FT TSRA BR BKN016CB OVC038 16/14 A2992
 RMK AO2 TWR VIS 2 1/2 TSB00 OCNL LTGIC OHD TS OHD MOV E P0008 T01560139=
KCVG 241817Z 17008KT 5SM BR BKN015 BKN043 OVC100 16/14 A2991 RMK AO2 LTG DSNT
 NE AND E RAE15 TSB00E15 TSE MOV E P0010 T01610144=
KCVG 241852Z 16010KT 7SM -RA SCT022 BKN060 OVC080 17/16 A2989 RMK AO2 RAE15B42
 TSB00E15 CIG 023 36R SLP117 P0010 T01720156=
KCVG 241900Z 17010KT 8SM SCT022 BKN028 OVC060 18/16 A2989 RMK AO2 RAE1856 P0000
 T01780161=
KCVG 241907Z 17010KT 8SM SCT026 BKN060 BKN080 18/16 A2988 RMK AO2 RAE1856 P0000
 T01780161=
KCVG 241952Z 19010KT 9SM FEW060 BKN095 BKN200 20/17 A2987 RMK AO2 RAE1856
 SLP108 P0000 T02000167=
KCVG 242052Z 19012G17KT 10SM FEW040 BKN090 BKN130 BKN250 23/18 A2984 RMK AO2
 SLP099 60010 T02280178 56031=
KCVG 242152Z 19012G19KT 10SM FEW090 SCT130 23/16 A2983 RMK AO2 SLP095 T02280161=
KCVG 242252Z 19009KT 10SM FEW090 FEW130 21/16 A2983 RMK AO2 SLP096 T02110161=
KCVG 242352Z 18009KT 10SM FEW130 FEW250 20/16 A2982 RMK AO2 SLP093 60010
 T02000156 10228 20156 56007=
KCVG 250052Z 19010KT 10SM SCT140 20/15 A2981 RMK AO2 SLP089 T02000150=
KCVG 250152Z 19010KT 10SM OVC150 20/15 A2982 RMK AO2 SLP090 T02000150=
KCVG 250252Z 19012G19KT 10SM BKN150 20/14 A2982 RMK AO2 SLP090 T02000139 56003=
KCVG 250352Z 20009G21KT 10SM SCT150 19/13 A2981 RMK AO2 SLP090 T01940128=
KCVG 250452Z 19012KT 10SM BKN120 19/12 A2980 RMK AO2 SLP087 T01890122 402280117=
KCVG 250552Z 19013G19KT 10SM BKN120 18/11 A2978 RMK AO2 SLP077 T01830111 10206
 20183 58013=
KCVG 250652Z 19015G21KT 10SM CLR 18/11 A2976 RMK AO2 SLP071 T01780106=
KCVG 250752Z 20010KT 10SM BKN140 17/09 A2976 RMK AO2 LTG DSNT NW SLP072
 T01720094=
KCVG 250852Z 24007KT 10SM BKN070 OVC100 18/09 A2984 RMK AO2 SLP096 T01780094
 53020=
KCVG 250952Z 20006KT 10SM OVC070 17/10 A2981 RMK AO2 SLP087 T01670100=
KCVG 251044Z 21007KT 4SM -RA FEW036 BKN060 OVC075 14/12 A2980 RMK AO2 RAB0959
 P0007 T01440117=
KCVG 251052Z 22007KT 5SM -RA BKN060 OVC080 14/12 A2981 RMK AO2 RAB0959 SLP089
 P0010 T01440117=
KCVG 251108Z 16009KT 2 1/2SM +RA BR FEW028 OVC050 14/12 A2977 RMK AO2 PRESFR
 P0007 T01440122=
KCVG 251114Z 14018KT 3SM RA BR SCT050 BKN070 OVC090 14/12 A2971 RMK AO2 PRESFR
 P0011 T01390122=
KCVG 251125Z 18010KT 8SM -RA FEW048 BKN090 OVC110 14/12 A2973 RMK AO2 CIG 075
 36R P0013 T01390122=
KCVG 251152Z 18011KT 10SM FEW090 SCT110 OVC140 14/12 A2973 RMK AO2 RAE30 SLP063
 P0013 60023 70067 T01390117 10183 20139 58034=
KCVG 251252Z 22004KT 10SM SCT060 OVC180 14/12 A2972 RMK AO2 SLP057 BINOVC
 T01390122=
KCVG 251352Z 18011KT 10SM FEW011 SCT060 BKN200 14/12 A2972 RMK AO2 SLP058
 T01390122=
KCVG 251415Z 19011KT 10SM FEW009 BKN014 14/13 A2971 RMK AO2 T01440128=